createdAt,value
2023-01-10T00:00:14.061Z,3.51
2023-01-10T00:02:42.687Z,2.43
2023-01-10T00:05:29.833Z,2.04
2023-01-10T00:08:15.675Z,2.29
2023-01-10T00:10:43.161Z,4.57
2023-01-10T00:13:23.801Z,2.56
2023-01-10T00:15:52.494Z,4.10
2023-01-10T00:18:20.510Z,1.77
2023-01-10T00:20:49.811Z,3.08
2023-01-10T00:23:19.228Z,1.84
2023-01-10T00:25:46.975Z,2.07
2023-01-10T00:28:20.719Z,2.31
2023-01-10T00:30:55.442Z,1.21
2023-01-10T00:33:43.926Z,1.32
2023-01-10T00:36:24.958Z,1.67
2023-01-10T00:38:52.359Z,2.68
2023-01-10T00:41:38.571Z,3.06
2023-01-10T00:44:06.857Z,2.12
2023-01-10T00:46:34.497Z,2.39
2023-01-10T00:49:02.388Z,3.26
2023-01-10T00:51:30.176Z,2.17
2023-01-10T00:53:57.441Z,2.48
2023-01-10T00:56:24.379Z,2.93
2023-01-10T00:58:51.488Z,3.08
2023-01-10T01:01:18.557Z,2.69
2023-01-10T01:04:08.869Z,2.55
2023-01-10T01:07:10.816Z,3.16
2023-01-10T01:10:22.898Z,3.09
2023-01-10T01:12:51.481Z,3.05
2023-01-10T01:15:19.589Z,3.06
2023-01-10T01:17:48.366Z,3.97
2023-01-10T01:20:16.467Z,3.14
2023-01-10T01:22:44.728Z,3.99
2023-01-10T01:25:12.448Z,3.74
2023-01-10T01:27:40.520Z,3.67
2023-01-10T01:30:11.096Z,3.97
2023-01-10T01:32:59.090Z,4.42
2023-01-10T01:35:43.721Z,3.46
2023-01-10T01:38:10.779Z,3.82
2023-01-10T01:40:39.393Z,3.09
2023-01-10T01:43:40.729Z,3.57
2023-01-10T01:46:23.324Z,3.37
2023-01-10T01:48:50.457Z,3.97
2023-01-10T01:51:23.242Z,5.21
2023-01-10T01:54:21.351Z,4.50
2023-01-10T01:57:11.358Z,3.35
2023-01-10T01:59:48.820Z,3.39
2023-01-10T02:02:25.964Z,3.87
2023-01-10T02:05:22.968Z,3.13
2023-01-10T02:08:04.271Z,2.89
2023-01-10T02:10:49.533Z,5.09
2023-01-10T02:13:20.659Z,3.60
2023-01-10T02:15:48.275Z,3.06
2023-01-10T02:18:15.527Z,3.72
2023-01-10T02:20:51.742Z,5.17
2023-01-10T02:23:54.274Z,5.26
2023-01-10T02:26:39.510Z,5.49
2023-01-10T02:29:06.407Z,5.21
2023-01-10T02:32:10.616Z,5.22
2023-01-10T02:35:21.732Z,3.58
2023-01-10T02:38:28.900Z,5.18
2023-01-10T02:41:12.771Z,5.37
2023-01-10T02:43:48.667Z,3.75
2023-01-10T02:46:25.693Z,4.43
2023-01-10T02:48:54.247Z,2.93
2023-01-10T02:51:30.219Z,3.04
2023-01-10T02:54:01.169Z,5.13
2023-01-10T02:56:28.111Z,5.26
2023-01-10T02:59:29.771Z,5.24
2023-01-10T03:02:50.056Z,4.76
2023-01-10T03:06:27.871Z,5.26
2023-01-10T03:09:34.476Z,5.13
2023-01-10T03:12:21.308Z,2.88
2023-01-10T03:14:52.338Z,3.06
2023-01-10T03:17:20.607Z,2.27
2023-01-10T03:20:12.716Z,2.72
2023-01-10T03:22:56.496Z,2.54
2023-01-10T03:25:28.399Z,4.79
2023-01-10T03:28:03.733Z,2.99
2023-01-10T03:30:52.402Z,2.78
2023-01-10T03:33:44.844Z,5.01
2023-01-10T03:36:51.047Z,5.38
2023-01-10T03:39:33.990Z,3.79
2023-01-10T03:42:29.401Z,5.51
2023-01-10T03:45:08.900Z,5.61
2023-01-10T03:47:46.928Z,3.20
2023-01-10T03:50:19.148Z,3.52
2023-01-10T03:52:48.448Z,3.91
2023-01-10T03:55:42.212Z,5.53
2023-01-10T03:58:43.862Z,4.16
2023-01-10T04:01:45.446Z,3.96
2023-01-10T04:04:47.137Z,4.99
2023-01-10T04:07:47.880Z,5.41
2023-01-10T04:10:21.730Z,5.27
2023-01-10T04:12:49.308Z,2.97
2023-01-10T04:15:16.345Z,4.12
2023-01-10T04:17:43.339Z,4.19
2023-01-10T04:20:11.779Z,3.04
2023-01-10T04:22:39.209Z,2.98
2023-01-10T04:25:06.799Z,3.36
2023-01-10T04:27:33.953Z,2.64
2023-01-10T04:30:01.598Z,2.93
2023-01-10T04:32:48.896Z,4.60
2023-01-10T04:35:34.000Z,3.61
2023-01-10T04:38:02.012Z,2.82
2023-01-10T04:40:29.798Z,3.95
2023-01-10T04:42:57.032Z,3.23
2023-01-10T04:45:25.563Z,2.64
2023-01-10T04:47:56.119Z,4.63
2023-01-10T04:50:24.004Z,2.58
2023-01-10T04:52:51.135Z,4.34
2023-01-10T04:55:18.223Z,4.36
2023-01-10T04:57:46.309Z,4.18
2023-01-10T05:00:14.117Z,5.01
2023-01-10T05:02:46.536Z,5.06
2023-01-10T05:05:35.263Z,4.10
2023-01-10T05:08:35.829Z,3.59
2023-01-10T05:11:16.788Z,2.88
2023-01-10T05:13:45.445Z,3.39
2023-01-10T05:16:14.603Z,3.91
2023-01-10T05:18:42.672Z,2.74
2023-01-10T05:21:12.832Z,3.34
2023-01-10T05:23:41.264Z,3.71
2023-01-10T05:26:31.447Z,4.32
2023-01-10T05:29:12.327Z,4.26
2023-01-10T05:31:39.631Z,4.48
2023-01-10T05:34:26.852Z,3.99
2023-01-10T05:37:08.317Z,2.96
2023-01-10T05:39:35.726Z,5.04
2023-01-10T05:42:04.582Z,3.90
2023-01-10T05:44:31.821Z,3.66
2023-01-10T05:47:18.836Z,3.58
2023-01-10T05:49:59.474Z,4.88
2023-01-10T05:52:26.433Z,3.44
2023-01-10T05:54:54.151Z,4.01
2023-01-10T05:57:22.356Z,3.69
2023-01-10T05:59:49.678Z,3.82
2023-01-10T06:02:37.236Z,3.08
2023-01-10T06:05:38.837Z,2.62
2023-01-10T06:08:19.648Z,3.42
2023-01-10T06:10:46.840Z,4.42
2023-01-10T06:13:33.815Z,4.51
2023-01-10T06:16:34.851Z,2.89
2023-01-10T06:19:35.849Z,3.49
2023-01-10T06:22:37.865Z,3.72
2023-01-10T06:25:05.699Z,2.63
2023-01-10T06:27:32.951Z,3.90
2023-01-10T06:30:01.494Z,3.02
2023-01-10T06:32:48.869Z,3.57
2023-01-10T06:35:37.956Z,2.47
2023-01-10T06:38:05.115Z,3.61
2023-01-10T06:40:32.222Z,3.96
2023-01-10T06:42:59.598Z,4.14
2023-01-10T06:45:28.302Z,3.84
2023-01-10T06:47:55.372Z,3.80
2023-01-10T06:50:43.019Z,3.46
2023-01-10T06:53:23.538Z,2.42
2023-01-10T06:55:58.363Z,2.25
2023-01-10T06:58:36.573Z,2.24
2023-01-10T07:01:13.579Z,2.94
2023-01-10T07:03:41.113Z,3.83
2023-01-10T07:06:12.506Z,2.85
2023-01-10T07:08:41.643Z,3.58
2023-01-10T07:11:29.864Z,2.72
2023-01-10T07:14:10.607Z,3.51
2023-01-10T07:16:37.712Z,3.12
2023-01-10T07:19:06.206Z,4.05
2023-01-10T07:21:33.421Z,4.23
2023-01-10T07:24:02.633Z,3.75
2023-01-10T07:27:03.895Z,4.58
2023-01-10T07:30:04.895Z,3.96
2023-01-10T07:33:13.015Z,3.05
2023-01-10T07:35:54.277Z,2.62
2023-01-10T07:38:22.807Z,2.53
2023-01-10T07:40:50.989Z,4.89
2023-01-10T07:43:17.983Z,4.72
2023-01-10T07:45:48.873Z,3.35
2023-01-10T07:49:35.873Z,5.30
2023-01-10T07:52:08.976Z,5.25
2023-01-10T07:54:35.965Z,5.31
2023-01-10T07:57:02.941Z,5.45
2023-01-10T07:59:29.837Z,4.75
2023-01-10T08:01:56.760Z,5.80
2023-01-10T08:04:23.623Z,5.97
2023-01-10T08:06:51.792Z,5.46
2023-01-10T08:09:38.901Z,5.96
2023-01-10T08:12:39.844Z,6.09
2023-01-10T08:15:20.577Z,6.04
2023-01-10T08:17:47.651Z,6.29
2023-01-10T08:20:34.876Z,6.07
2023-01-10T08:23:15.804Z,6.37
2023-01-10T08:25:42.667Z,6.65
2023-01-10T08:28:29.880Z,6.68
2023-01-10T08:31:25.169Z,7.05
2023-01-10T08:34:26.908Z,7.09
2023-01-10T08:37:07.565Z,7.56
2023-01-10T08:39:35.456Z,7.09
2023-01-10T08:42:02.445Z,7.66
2023-01-10T08:44:29.393Z,7.62
2023-01-10T08:46:56.990Z,7.74
2023-01-10T08:49:43.883Z,7.42
2023-01-10T08:52:24.563Z,7.62
2023-01-10T08:54:51.610Z,7.43
2023-01-10T08:57:18.659Z,7.52
2023-01-10T08:59:45.618Z,8.17
2023-01-10T09:02:14.009Z,7.72
2023-01-10T09:04:41.057Z,7.96
2023-01-10T09:07:27.894Z,8.56
2023-01-10T09:10:21.468Z,8.45
2023-01-10T09:12:57.537Z,8.83
2023-01-10T09:15:49.922Z,8.97
2023-01-10T09:18:30.567Z,9.08
2023-01-10T09:21:17.889Z,9.47
2023-01-10T09:23:59.228Z,9.46
2023-01-10T09:26:26.171Z,9.43
2023-01-10T09:28:53.095Z,9.46
2023-01-10T09:31:20.238Z,9.60
2023-01-10T09:33:49.840Z,9.37
2023-01-10T09:36:16.868Z,9.62
2023-01-10T09:38:44.641Z,9.63
2023-01-10T09:41:20.555Z,9.82
2023-01-10T09:44:04.160Z,10.24
2023-01-10T09:46:52.653Z,10.33
2023-01-10T09:49:35.619Z,10.50
2023-01-10T09:52:08.705Z,10.21
2023-01-10T09:54:43.871Z,10.25
2023-01-10T09:57:35.850Z,8.80
2023-01-10T10:00:57.081Z,10.57
2023-01-10T10:03:52.787Z,10.58
2023-01-10T10:06:23.725Z,10.56
2023-01-10T10:09:14.023Z,10.60
2023-01-10T10:12:31.979Z,10.75
2023-01-10T10:15:45.972Z,10.90
2023-01-10T10:18:46.918Z,10.87
2023-01-10T10:21:48.034Z,11.09
2023-01-10T10:24:47.116Z,11.25
2023-01-10T10:27:32.718Z,11.12
2023-01-10T10:30:18.200Z,11.20
2023-01-10T10:32:51.476Z,11.06
2023-01-10T10:35:30.471Z,11.33
2023-01-10T10:38:18.248Z,11.61
2023-01-10T10:40:47.019Z,11.32
2023-01-10T10:43:21.998Z,11.81
2023-01-10T10:46:03.348Z,11.83
2023-01-10T10:48:44.400Z,12.13
2023-01-10T10:51:26.828Z,11.86
2023-01-10T10:53:56.844Z,11.64
2023-01-10T10:56:44.018Z,11.85
2023-01-10T10:59:24.514Z,11.87
2023-01-10T11:01:52.203Z,11.61
2023-01-10T11:04:41.004Z,11.87
2023-01-10T11:07:45.958Z,12.24
2023-01-10T11:10:46.944Z,11.90
2023-01-10T11:13:33.663Z,11.93
2023-01-10T11:16:21.050Z,11.86
2023-01-10T11:19:21.601Z,12.28
2023-01-10T11:22:00.137Z,12.55
2023-01-10T11:24:30.134Z,12.79
2023-01-10T11:26:59.030Z,12.56
2023-01-10T11:29:37.733Z,12.52
2023-01-10T11:32:17.068Z,12.59
2023-01-10T11:34:59.135Z,12.57
2023-01-10T11:37:32.821Z,12.90
2023-01-10T11:40:20.082Z,12.77
2023-01-10T11:43:09.024Z,12.75
2023-01-10T11:45:59.137Z,12.93
2023-01-10T11:48:48.162Z,13.05
2023-01-10T11:51:25.708Z,12.76
2023-01-10T11:54:09.468Z,13.06
2023-01-10T11:56:40.060Z,12.77
2023-01-10T11:59:09.519Z,12.94
2023-01-10T12:01:47.564Z,12.61
2023-01-10T12:04:17.290Z,12.53
2023-01-10T12:06:50.791Z,13.18
2023-01-10T12:09:46.993Z,13.25
2023-01-10T12:12:48.986Z,13.18
2023-01-10T12:15:50.043Z,13.08
2023-01-10T12:18:51.015Z,13.36
2023-01-10T12:21:54.008Z,13.36
2023-01-10T12:24:43.713Z,13.45
2023-01-10T12:27:14.052Z,13.27
2023-01-10T12:29:46.020Z,13.49
2023-01-10T12:32:28.355Z,13.67
2023-01-10T12:35:03.333Z,13.48
2023-01-10T12:37:51.685Z,13.36
2023-01-10T12:40:24.614Z,13.62
2023-01-10T12:43:24.685Z,13.55
2023-01-10T12:46:38.440Z,13.28
2023-01-10T12:49:49.051Z,13.58
2023-01-10T12:53:10.760Z,13.54
2023-01-10T12:56:14.000Z,13.51
2023-01-10T12:59:09.811Z,13.70
2023-01-10T13:01:41.805Z,13.68
2023-01-10T13:04:34.023Z,13.72
2023-01-10T13:07:39.016Z,13.50
2023-01-10T13:10:40.040Z,13.70
2023-01-10T13:13:41.691Z,13.57
2023-01-10T13:16:17.826Z,13.71
2023-01-10T13:19:01.944Z,13.84
2023-01-10T13:21:30.132Z,13.56
2023-01-10T13:24:24.028Z,13.50
2023-01-10T13:26:54.940Z,13.77
2023-01-10T13:29:25.094Z,13.47
2023-01-10T13:31:57.564Z,13.50
2023-01-10T13:34:49.056Z,13.71
2023-01-10T13:37:54.095Z,13.45
2023-01-10T13:40:55.045Z,13.80
2023-01-10T13:44:02.027Z,13.73
2023-01-10T13:46:33.132Z,13.58
2023-01-10T13:49:26.026Z,13.55
2023-01-10T13:52:33.162Z,13.58
2023-01-10T13:55:03.908Z,13.51
2023-01-10T13:57:59.067Z,13.49
2023-01-10T14:00:58.379Z,13.58
2023-01-10T14:03:42.704Z,13.31
2023-01-10T14:06:41.231Z,13.46
2023-01-10T14:09:28.031Z,13.52
2023-01-10T14:12:21.255Z,13.29
2023-01-10T14:14:55.367Z,13.50
2023-01-10T14:17:24.197Z,13.50
2023-01-10T14:20:17.449Z,13.21
2023-01-10T14:22:58.374Z,12.90
2023-01-10T14:25:26.520Z,12.57
2023-01-10T14:27:55.289Z,12.59
2023-01-10T14:30:27.585Z,12.32
2023-01-10T14:32:58.026Z,12.44
2023-01-10T14:35:53.098Z,12.21
2023-01-10T14:38:59.098Z,11.66
2023-01-10T14:41:46.304Z,12.19
2023-01-10T14:44:18.147Z,11.33
2023-01-10T14:47:09.253Z,12.10
2023-01-10T14:50:06.974Z,11.55
2023-01-10T14:53:08.216Z,11.36
2023-01-10T14:56:09.177Z,11.90
2023-01-10T14:59:10.102Z,11.82
2023-01-10T15:02:00.482Z,11.96
2023-01-10T15:04:35.429Z,11.80
2023-01-10T15:07:30.106Z,11.52
2023-01-10T15:10:54.139Z,11.36
2023-01-10T15:13:40.901Z,11.42
2023-01-10T15:16:12.339Z,11.18
2023-01-10T15:18:45.795Z,11.41
2023-01-10T15:21:14.446Z,11.32
2023-01-10T15:23:44.235Z,11.18
2023-01-10T15:26:16.979Z,10.57
2023-01-10T15:29:02.997Z,10.77
2023-01-10T15:31:30.383Z,10.56
2023-01-10T15:34:22.077Z,10.27
2023-01-10T15:37:26.607Z,10.12
2023-01-10T15:40:22.014Z,9.66
2023-01-10T15:42:49.056Z,9.68
2023-01-10T15:45:31.160Z,9.95
2023-01-10T15:48:04.076Z,9.64
2023-01-10T15:50:52.156Z,9.75
2023-01-10T15:54:10.218Z,9.59
2023-01-10T15:57:00.748Z,9.03
2023-01-10T15:59:32.924Z,9.18
2023-01-10T16:02:34.397Z,9.01
2023-01-10T16:05:29.042Z,8.78
2023-01-10T16:08:18.157Z,8.76
2023-01-10T16:11:01.499Z,8.62
2023-01-10T16:13:28.938Z,8.51
2023-01-10T16:15:56.859Z,8.50
2023-01-10T16:18:25.109Z,8.47
2023-01-10T16:20:58.082Z,8.38
2023-01-10T16:23:48.167Z,8.41
2023-01-10T16:26:28.871Z,8.06
2023-01-10T16:28:56.149Z,8.28
2023-01-10T16:31:23.269Z,8.11
2023-01-10T16:33:50.181Z,7.93
2023-01-10T16:36:37.274Z,7.76
2023-01-10T16:39:39.124Z,7.94
2023-01-10T16:42:40.769Z,7.74
2023-01-10T16:45:08.829Z,7.43
2023-01-10T16:47:56.188Z,7.53
2023-01-10T16:50:58.135Z,7.23
2023-01-10T16:53:38.700Z,6.92
2023-01-10T16:56:31.150Z,7.02
2023-01-10T16:59:32.167Z,6.65
2023-01-10T17:02:18.901Z,6.70
2023-01-10T17:04:45.863Z,6.72
2023-01-10T17:07:26.163Z,6.45
2023-01-10T17:10:18.457Z,6.30
2023-01-10T17:12:45.784Z,5.97
2023-01-10T17:15:14.737Z,6.27
2023-01-10T17:17:44.918Z,6.34
2023-01-10T17:20:14.599Z,6.40
2023-01-10T17:22:42.857Z,6.22
2023-01-10T17:25:30.192Z,6.34
2023-01-10T17:28:12.279Z,6.47
2023-01-10T17:30:40.379Z,6.37
2023-01-10T17:33:27.212Z,6.19
2023-01-10T17:36:29.241Z,6.86
2023-01-10T17:39:23.379Z,7.01
2023-01-10T17:42:18.868Z,6.83
2023-01-10T17:45:06.695Z,6.54
2023-01-10T17:47:36.455Z,6.42
2023-01-10T17:50:05.429Z,5.98
2023-01-10T17:52:32.688Z,6.15
2023-01-10T17:55:21.239Z,6.44
2023-01-10T17:58:03.019Z,6.12
2023-01-10T18:00:30.522Z,6.35
2023-01-10T18:02:57.736Z,5.88
2023-01-10T18:05:24.784Z,6.49
2023-01-10T18:08:13.251Z,6.33
2023-01-10T18:11:08.511Z,6.30
2023-01-10T18:13:48.880Z,5.89
2023-01-10T18:16:15.955Z,5.96
2023-01-10T18:18:42.988Z,5.87
2023-01-10T18:21:15.128Z,5.80
2023-01-10T18:24:06.500Z,5.52
2023-01-10T18:27:07.496Z,5.50
2023-01-10T18:29:49.459Z,5.49
2023-01-10T18:32:17.291Z,5.09
2023-01-10T18:35:04.263Z,4.64
2023-01-10T18:37:45.346Z,5.00
2023-01-10T18:40:13.277Z,4.44
2023-01-10T18:42:40.439Z,4.41
2023-01-10T18:45:08.739Z,4.72
2023-01-10T18:47:56.248Z,4.95
2023-01-10T18:50:37.664Z,4.98
2023-01-10T18:53:10.839Z,4.65
2023-01-10T18:55:37.980Z,4.44
2023-01-10T18:58:18.451Z,4.83
2023-01-10T19:01:27.268Z,4.52
2023-01-10T19:04:28.278Z,4.24
2023-01-10T19:07:29.239Z,4.26
2023-01-10T19:10:19.054Z,4.42
2023-01-10T19:12:46.223Z,4.37
2023-01-10T19:15:13.316Z,4.39
2023-01-10T19:17:40.328Z,4.52
2023-01-10T19:20:28.259Z,4.54
2023-01-10T19:23:29.298Z,4.36
2023-01-10T19:26:10.290Z,4.36
2023-01-10T19:28:37.316Z,4.80
2023-01-10T19:31:05.492Z,4.47
2023-01-10T19:33:34.765Z,4.87
2023-01-10T19:36:22.266Z,3.47
2023-01-10T19:39:08.126Z,4.93
2023-01-10T19:41:58.268Z,4.37
2023-01-10T19:44:42.624Z,4.67
2023-01-10T19:47:12.135Z,4.34
2023-01-10T19:49:39.279Z,4.29
2023-01-10T19:52:06.983Z,4.05
2023-01-10T19:54:34.690Z,4.52
2023-01-10T19:57:01.718Z,4.49
2023-01-10T19:59:49.305Z,4.08
2023-01-10T20:02:30.102Z,3.23
2023-01-10T20:04:57.118Z,3.73
2023-01-10T20:07:44.296Z,3.79
2023-01-10T20:10:24.806Z,3.29
2023-01-10T20:12:51.799Z,3.60
2023-01-10T20:15:19.050Z,2.93
2023-01-10T20:17:46.096Z,3.56
2023-01-10T20:20:33.284Z,3.62
2023-01-10T20:23:34.279Z,3.70
2023-01-10T20:26:17.403Z,3.74
2023-01-10T20:28:47.399Z,3.30
2023-01-10T20:31:20.850Z,3.67
2023-01-10T20:33:48.575Z,3.38
2023-01-10T20:36:37.321Z,3.43
2023-01-10T20:39:39.372Z,3.29
2023-01-10T20:42:19.978Z,3.32
2023-01-10T20:44:46.900Z,3.04
2023-01-10T20:47:13.823Z,2.47
2023-01-10T20:49:41.092Z,2.81
2023-01-10T20:52:13.899Z,2.17
2023-01-10T20:54:40.989Z,3.09
2023-01-10T20:57:10.569Z,3.29
2023-01-10T20:59:37.570Z,3.39
2023-01-10T21:02:31.459Z,3.45
2023-01-10T21:05:12.226Z,3.48
2023-01-10T21:07:59.382Z,3.24
2023-01-10T21:10:43.753Z,2.80
2023-01-10T21:13:24.308Z,2.70
2023-01-10T21:16:16.465Z,2.83
2023-01-10T21:18:46.871Z,2.72
2023-01-10T21:21:16.711Z,2.91
2023-01-10T21:24:03.424Z,2.88
2023-01-10T21:27:04.425Z,2.22
2023-01-10T21:29:45.271Z,2.59
2023-01-10T21:32:13.153Z,2.30
2023-01-10T21:34:40.200Z,2.17
2023-01-10T21:37:16.454Z,2.25
2023-01-10T21:39:43.567Z,1.95
2023-01-10T21:42:44.464Z,2.49
2023-01-10T21:45:45.321Z,2.42
2023-01-10T21:48:25.953Z,2.23
2023-01-10T21:50:52.934Z,1.41
2023-01-10T21:53:21.333Z,1.97
2023-01-10T21:55:48.582Z,1.93
2023-01-10T21:58:15.616Z,1.68
2023-01-10T22:00:42.822Z,1.19
2023-01-10T22:03:13.292Z,1.64
2023-01-10T22:05:40.286Z,1.92
2023-01-10T22:08:27.458Z,1.84
2023-01-10T22:11:10.794Z,1.59
2023-01-10T22:13:38.964Z,1.92
2023-01-10T22:16:27.423Z,2.04
2023-01-10T22:19:12.543Z,1.35
2023-01-10T22:21:39.647Z,1.62
2023-01-10T22:24:07.503Z,1.57
2023-01-10T22:26:35.345Z,1.49
2023-01-10T22:29:02.618Z,1.65
2023-01-10T22:31:32.303Z,1.53
2023-01-10T22:33:59.491Z,1.88
2023-01-10T22:36:26.549Z,2.15
2023-01-10T22:38:53.700Z,1.56
2023-01-10T22:41:29.010Z,2.13
2023-01-10T22:43:56.638Z,1.51
2023-01-10T22:46:24.323Z,1.21
2023-01-10T22:49:11.546Z,2.11
2023-01-10T22:52:15.413Z,1.94
2023-01-10T22:54:56.372Z,1.96
2023-01-10T22:57:23.573Z,2.08
2023-01-10T23:00:13.623Z,1.35
2023-01-10T23:03:14.377Z,2.07
2023-01-10T23:05:41.520Z,1.45
2023-01-10T23:08:28.338Z,1.20
2023-01-10T23:11:14.651Z,1.82
2023-01-10T23:14:02.460Z,1.12
2023-01-10T23:16:43.204Z,0.91
2023-01-10T23:19:13.657Z,1.42
2023-01-10T23:21:53.523Z,1.39
2023-01-10T23:24:54.383Z,1.66
2023-01-10T23:27:50.557Z,1.24
2023-01-10T23:30:17.809Z,0.88
2023-01-10T23:32:44.822Z,0.86
2023-01-10T23:35:12.176Z,1.05
2023-01-10T23:37:39.409Z,1.36
2023-01-10T23:40:07.703Z,1.24
2023-01-10T23:42:34.916Z,1.96
2023-01-10T23:45:02.171Z,2.13
2023-01-10T23:47:49.365Z,2.24
2023-01-10T23:50:29.998Z,2.16
2023-01-10T23:52:56.919Z,2.15
2023-01-10T23:55:24.076Z,1.85
2023-01-10T23:57:53.656Z,1.54
